メインページ
METAR-TAF:

METAR-TAF

空港 :

Abadeh, イラン

緯度: 31-11N, 経度: 052-40E, 海抜: 2004m

現時点の気象観測

当レポートは1時間48分前の11:00(UTC)に作成
南/南西の風 4kt
気温 15°C
湿度 10%
気圧 1023 hPa
視程10km以上
1,500メートル以下は雲なし、積乱雲なし

METAR: OISA 121100Z 20004KT CAVOK 15/M16 Q1023

時間: 16:18 (12:48 UTC)


TAF: 見つかりません

4,000以上の空港の気象観測と天気予報(METAR報とTAF報)

利用可能な観測所は地図上に黄色い丸と赤い丸で示す。

丸の上にカーソルを重ねると観測所名を参照できる。

次にクリックすると気象観測と天気予報を参照できる。

マップの切り替え:黒色「×」印の緑ボタンをクリックして拡大、「-」印の緑ボタンをクリックして縮小、緑色の三角印をクリックして隣りの地図に切り替え


METAR-TAF: